Time;durP1;ratioP1;P1;durP2;ratioP2;P2;SDS_P1;SDS_P2;PMS_P1;PMS_P2;Temp;Humidity;BMP_temperature;BMP_pressure;BME280_temperature;BME280_humidity;BME280_pressure;Samples;Min_cycle;Max_cycle;Signal;HPM_P1;HPM_P2
2022/04/17 00:00:03;;;;;;;0.10;0.10;;;;;;;;;;5115127;27;20473;-85
2022/04/17 00:02:29;;;;;;;0.10;0.10;;;;;;;;;;5132604;27;20061;-85
2022/04/17 00:04:55;;;;;;;0.10;0.10;;;;;;;;;;5132937;27;20481;-86
2022/04/17 00:07:21;;;;;;;0.10;0.10;;;;;;;;;;5132730;27;20031;-83
2022/04/17 00:09:47;;;;;;;0.10;0.10;;;;;;;;;;5114157;28;20023;-83
2022/04/17 00:12:13;;;;;;;0.17;0.17;;;;;;;;;;5132615;27;20064;-84
2022/04/17 00:14:40;;;;;;;0.10;0.10;;;;;;;;;;5132463;28;20019;-84
2022/04/17 00:17:07;;;;;;;0.10;0.10;;;;;;;;;;5114152;27;20035;-83
2022/04/17 00:19:33;;;;;;;0.10;0.10;;;;;;;;;;5113766;28;20030;-83
2022/04/17 00:21:59;;;;;;;0.10;0.10;;;;;;;;;;5132194;27;20032;-84
2022/04/17 00:24:27;;;;;;;0.10;0.10;;;;;;;;;;5114079;28;20024;-83
2022/04/17 00:26:53;;;;;;;0.10;0.10;;;;;;;;;;5114521;28;20052;-83
2022/04/17 00:29:19;;;;;;;0.10;0.10;;;;;;;;;;5114432;28;20030;-84
2022/04/17 00:31:45;;;;;;;0.10;0.10;;;;;;;;;;5132408;28;20027;-85
2022/04/17 00:34:11;;;;;;;0.10;0.10;;;;;;;;;;5114110;28;20114;-83
2022/04/17 00:36:37;;;;;;;0.10;0.10;;;;;;;;;;5132039;28;20504;-83
2022/04/17 00:39:03;;;;;;;0.10;0.10;;;;;;;;;;5114173;28;20019;-83
2022/04/17 00:41:29;;;;;;;0.10;0.10;;;;;;;;;;5113894;28;20405;-84
2022/04/17 00:43:56;;;;;;;0.10;0.10;;;;;;;;;;5132521;28;20022;-85
2022/04/17 00:46:22;;;;;;;0.10;0.10;;;;;;;;;;5114696;28;20027;-83
2022/04/17 00:48:48;;;;;;;0.10;0.10;;;;;;;;;;5132316;27;20030;-85
2022/04/17 00:51:15;;;;;;;0.10;0.10;;;;;;;;;;5132172;27;20031;-85
2022/04/17 00:53:42;;;;;;;0.10;0.10;;;;;;;;;;5114085;28;20019;-83
2022/04/17 00:56:09;;;;;;;0.10;0.10;;;;;;;;;;5132331;27;20022;-84
2022/04/17 00:58:37;;;;;;;0.10;0.10;;;;;;;;;;5132019;27;20019;-84
2022/04/17 01:01:03;;;;;;;0.10;0.10;;;;;;;;;;5114017;27;20023;-84
2022/04/17 01:03:29;;;;;;;0.10;0.10;;;;;;;;;;5113780;28;20073;-85
2022/04/17 01:05:56;;;;;;;0.10;0.10;;;;;;;;;;5096865;28;20072;-84
2022/04/17 01:08:22;;;;;;;0.10;0.10;;;;;;;;;;5114490;28;20019;-85
2022/04/17 01:10:48;;;;;;;0.10;0.10;;;;;;;;;;5115570;28;20034;-84
2022/04/17 01:13:14;;;;;;;0.10;0.10;;;;;;;;;;5097100;28;20028;-84
2022/04/17 01:15:40;;;;;;;0.17;0.17;;;;;;;;;;5096938;28;20030;-84
2022/04/17 01:18:06;;;;;;;0.10;0.10;;;;;;;;;;5115257;28;20095;-84
2022/04/17 01:20:33;;;;;;;0.10;0.10;;;;;;;;;;5130582;27;20478;-84
2022/04/17 01:28:28;;;;;;;0.10;0.10;;;;;;;;;;5135428;27;20076;-84
2022/04/17 01:30:55;;;;;;;0.10;0.10;;;;;;;;;;5135613;27;20024;-86
2022/04/17 01:33:23;;;;;;;0.10;0.10;;;;;;;;;;5117462;27;20051;-83
2022/04/17 01:35:49;;;;;;;0.10;0.10;;;;;;;;;;5117109;27;20027;-83
2022/04/17 01:38:16;;;;;;;0.10;0.10;;;;;;;;;;5135674;27;20031;-84
2022/04/17 01:40:42;;;;;;;0.10;0.10;;;;;;;;;;5117248;27;20023;-85
2022/04/17 01:43:11;;;;;;;0.10;0.10;;;;;;;;;;5117385;27;20375;-84
2022/04/17 01:45:38;;;;;;;0.10;0.10;;;;;;;;;;5116791;27;20110;-85
2022/04/17 01:48:04;;;;;;;0.10;0.10;;;;;;;;;;5135959;27;20091;-83
2022/04/17 01:50:30;;;;;;;0.10;0.10;;;;;;;;;;5116616;27;20035;-85
2022/04/17 01:52:58;;;;;;;0.10;0.10;;;;;;;;;;5135284;27;20031;-86
2022/04/17 01:55:24;;;;;;;0.10;0.10;;;;;;;;;;5135244;27;20026;-85
2022/04/17 01:57:50;;;;;;;0.10;0.10;;;;;;;;;;5135339;27;20035;-84
2022/04/17 02:00:16;;;;;;;0.10;0.10;;;;;;;;;;5134727;27;20027;-81
2022/04/17 02:02:42;;;;;;;0.10;0.10;;;;;;;;;;5134625;27;20099;-83
2022/04/17 02:05:09;;;;;;;0.10;0.10;;;;;;;;;;5135234;27;20043;-84
2022/04/17 02:07:37;;;;;;;0.10;0.10;;;;;;;;;;5135047;27;20023;-85
2022/04/17 02:10:07;;;;;;;0.13;0.13;;;;;;;;;;5135381;27;20498;-84
2022/04/17 02:12:34;;;;;;;0.10;0.10;;;;;;;;;;5116585;27;20381;-84
2022/04/17 02:15:00;;;;;;;0.10;0.10;;;;;;;;;;5116701;27;20023;-83
2022/04/17 02:17:26;;;;;;;0.20;0.20;;;;;;;;;;5116380;27;20440;-85
2022/04/17 02:19:52;;;;;;;0.10;0.10;;;;;;;;;;5134041;27;20023;-85
2022/04/17 02:22:18;;;;;;;0.10;0.10;;;;;;;;;;5134997;27;20035;-84
2022/04/17 02:24:44;;;;;;;0.10;0.10;;;;;;;;;;5116451;27;20497;-84
2022/04/17 02:27:10;;;;;;;0.10;0.10;;;;;;;;;;5134953;27;20031;-85
2022/04/17 02:29:36;;;;;;;0.10;0.10;;;;;;;;;;5134153;27;20034;-83
2022/04/17 02:32:02;;;;;;;0.10;0.10;;;;;;;;;;5116142;27;20028;-84
2022/04/17 02:34:28;;;;;;;0.10;0.10;;;;;;;;;;5115401;27;20099;-85
2022/04/17 02:36:54;;;;;;;0.10;0.10;;;;;;;;;;5116118;27;20027;-83
2022/04/17 02:39:20;;;;;;;1.00;1.00;;;;;;;;;;5134718;27;20031;-83
2022/04/17 02:41:46;;;;;;;0.10;0.10;;;;;;;;;;5133858;27;20367;-84
2022/04/17 02:44:12;;;;;;;0.10;0.10;;;;;;;;;;5134232;27;20051;-83
2022/04/17 02:49:23;;;;;;;0.10;0.10;;;;;;;;;;5134079;27;20038;-83
2022/04/17 02:51:49;;;;;;;0.10;0.10;;;;;;;;;;5134212;27;20399;-86
2022/04/17 02:54:15;;;;;;;0.10;0.10;;;;;;;;;;5134497;27;20019;-87
2022/04/17 02:56:41;;;;;;;0.10;0.10;;;;;;;;;;5134126;27;20037;-85
2022/04/17 02:59:07;;;;;;;0.10;0.10;;;;;;;;;;5133927;27;20467;-85
2022/04/17 03:07:13;;;;;;;0.10;0.10;;;;;;;;;;5133571;27;20066;-83
2022/04/17 03:09:39;;;;;;;0.10;0.10;;;;;;;;;;5133390;27;20083;-83
2022/04/17 03:12:05;;;;;;;0.10;0.10;;;;;;;;;;5133498;27;20023;-84
2022/04/17 03:14:31;;;;;;;0.10;0.10;;;;;;;;;;5133491;27;20410;-85
2022/04/17 03:16:57;;;;;;;0.10;0.10;;;;;;;;;;5106712;28;20027;-86
2022/04/17 03:19:23;;;;;;;0.10;0.10;;;;;;;;;;5113384;28;20066;-85
2022/04/17 03:21:49;;;;;;;0.10;0.10;;;;;;;;;;5113505;28;20479;-86
2022/04/17 03:24:15;;;;;;;0.10;0.10;;;;;;;;;;5113342;28;20094;-86
2022/04/17 03:26:41;;;;;;;0.10;0.10;;;;;;;;;;5116237;27;20505;-85
2022/04/17 03:29:08;;;;;;;0.10;0.10;;;;;;;;;;5133834;27;20450;-84
2022/04/17 03:31:34;;;;;;;0.10;0.10;;;;;;;;;;5132509;27;20023;-84
2022/04/17 03:34:00;;;;;;;0.10;0.10;;;;;;;;;;5115198;27;20106;-84
2022/04/17 03:36:26;;;;;;;0.10;0.10;;;;;;;;;;5133357;27;20023;-85
2022/04/17 03:38:52;;;;;;;0.10;0.10;;;;;;;;;;5133821;27;20442;-85
2022/04/17 03:41:18;;;;;;;0.10;0.10;;;;;;;;;;5114739;27;20462;-84
2022/04/17 03:43:44;;;;;;;0.10;0.10;;;;;;;;;;5132265;27;20094;-85
2022/04/17 03:46:10;;;;;;;0.10;0.10;;;;;;;;;;5133591;27;20411;-85
2022/04/17 03:48:36;;;;;;;0.10;0.10;;;;;;;;;;5133075;27;20398;-83
2022/04/17 03:51:02;;;;;;;0.10;0.10;;;;;;;;;;5114468;27;20547;-83
2022/04/17 03:53:28;;;;;;;0.10;0.10;;;;;;;;;;5132845;27;20082;-82
2022/04/17 03:55:55;;;;;;;0.10;0.10;;;;;;;;;;5114246;27;20031;-83
2022/04/17 03:58:21;;;;;;;0.10;0.10;;;;;;;;;;5133352;27;20027;-84
2022/04/17 04:00:47;;;;;;;0.10;0.10;;;;;;;;;;5132902;27;20477;-84
2022/04/17 04:03:13;;;;;;;0.10;0.10;;;;;;;;;;5132810;27;20038;-83
2022/04/17 04:05:39;;;;;;;0.10;0.10;;;;;;;;;;5132352;27;20102;-83
2022/04/17 04:08:05;;;;;;;0.10;0.10;;;;;;;;;;5132685;27;20107;-83
2022/04/17 04:10:31;;;;;;;0.10;0.10;;;;;;;;;;5132691;27;20034;-85
2022/04/17 04:12:57;;;;;;;0.10;0.10;;;;;;;;;;5132172;28;20023;-81
2022/04/17 04:15:24;;;;;;;0.10;0.10;;;;;;;;;;5132456;28;20031;-80
2022/04/17 04:17:50;;;;;;;0.10;0.10;;;;;;;;;;5132808;27;20019;-82
2022/04/17 04:20:16;;;;;;;0.10;0.10;;;;;;;;;;5132472;27;20033;-84
2022/04/17 04:22:42;;;;;;;0.10;0.10;;;;;;;;;;5132330;27;20106;-83
2022/04/17 04:25:08;;;;;;;0.10;0.10;;;;;;;;;;5132740;27;20494;-83
2022/04/17 04:30:30;;;;;;;0.10;0.10;;;;;;;;;;5058829;28;20033;-83
2022/04/17 04:32:56;;;;;;;0.10;0.10;;;;;;;;;;5132437;27;20020;-82
2022/04/17 04:35:23;;;;;;;0.10;0.10;;;;;;;;;;5132584;27;20398;-84
2022/04/17 04:37:49;;;;;;;0.10;0.10;;;;;;;;;;5132658;27;20111;-84
2022/04/17 04:40:16;;;;;;;0.10;0.10;;;;;;;;;;5132194;28;20470;-83
2022/04/17 04:42:42;;;;;;;0.10;0.10;;;;;;;;;;5133537;27;20087;-84
2022/04/17 04:47:53;;;;;;;0.10;0.10;;;;;;;;;;5136188;27;20076;-82
2022/04/17 04:50:19;;;;;;;0.10;0.10;;;;;;;;;;5136626;27;20031;-84
2022/04/17 04:52:45;;;;;;;0.10;0.10;;;;;;;;;;5136177;27;20020;-84
2022/04/17 04:55:11;;;;;;;0.10;0.10;;;;;;;;;;5136283;27;20042;-85
2022/04/17 04:57:38;;;;;;;0.10;0.10;;;;;;;;;;5136122;27;20375;-84
2022/04/17 05:00:05;;;;;;;0.10;0.10;;;;;;;;;;5136003;27;20106;-83
2022/04/17 05:02:31;;;;;;;0.10;0.10;;;;;;;;;;5135087;27;20039;-84
2022/04/17 05:04:57;;;;;;;0.10;0.10;;;;;;;;;;5136000;27;20034;-83
2022/04/17 05:07:23;;;;;;;0.10;0.10;;;;;;;;;;5136174;27;20474;-82
2022/04/17 05:09:49;;;;;;;0.10;0.10;;;;;;;;;;5135530;27;20038;-83
2022/04/17 05:12:15;;;;;;;0.10;0.10;;;;;;;;;;5135707;27;20098;-82
2022/04/17 05:14:44;;;;;;;0.10;0.10;;;;;;;;;;5135477;27;20413;-83
2022/04/17 05:17:10;;;;;;;0.13;0.13;;;;;;;;;;5135651;27;20363;-83
2022/04/17 05:19:38;;;;;;;0.10;0.10;;;;;;;;;;5135974;27;20034;-85
2022/04/17 05:22:10;;;;;;;0.10;0.10;;;;;;;;;;5136131;27;20386;-83
2022/04/17 05:24:36;;;;;;;0.20;0.20;;;;;;;;;;5135464;27;20023;-86
2022/04/17 05:27:02;;;;;;;0.10;0.10;;;;;;;;;;5136331;27;20102;-84
2022/04/17 05:29:28;;;;;;;0.10;0.10;;;;;;;;;;5135617;27;20020;-84
2022/04/17 05:31:54;;;;;;;0.10;0.10;;;;;;;;;;5135620;27;20023;-83
2022/04/17 05:34:20;;;;;;;0.10;0.10;;;;;;;;;;5135543;27;20094;-81
2022/04/17 05:36:46;;;;;;;0.10;0.10;;;;;;;;;;5134854;27;20024;-83
2022/04/17 05:39:12;;;;;;;0.10;0.10;;;;;;;;;;5134732;27;20056;-84
2022/04/17 05:41:39;;;;;;;0.10;0.10;;;;;;;;;;5134810;27;20160;-82
2022/04/17 05:44:06;;;;;;;0.63;0.63;;;;;;;;;;5135053;27;20034;-83
2022/04/17 05:46:35;;;;;;;0.10;0.10;;;;;;;;;;5134674;27;20466;-80
2022/04/17 05:49:02;;;;;;;0.10;0.10;;;;;;;;;;5134830;27;20466;-82
2022/04/17 05:51:28;;;;;;;0.10;0.10;;;;;;;;;;5134327;27;20443;-81
2022/04/17 05:53:55;;;;;;;0.10;0.10;;;;;;;;;;5133122;27;20043;-79
2022/04/17 05:56:21;;;;;;;0.17;0.17;;;;;;;;;;5134815;27;20432;-80
2022/04/17 05:58:47;;;;;;;0.10;0.10;;;;;;;;;;5134245;27;20046;-80
2022/04/17 06:01:14;;;;;;;0.10;0.10;;;;;;;;;;5133856;27;20494;-80
2022/04/17 06:03:40;;;;;;;0.10;0.10;;;;;;;;;;5134314;27;20023;-80
2022/04/17 06:06:06;;;;;;;0.10;0.10;;;;;;;;;;5133995;27;20130;-80
2022/04/17 06:08:32;;;;;;;0.10;0.10;;;;;;;;;;5115827;27;20039;-80
2022/04/17 06:10:59;;;;;;;0.10;0.10;;;;;;;;;;5115446;27;20031;-81
2022/04/17 06:13:25;;;;;;;0.10;0.10;;;;;;;;;;5126571;27;20031;-82
2022/04/17 06:15:51;;;;;;;0.10;0.10;;;;;;;;;;5129460;27;20027;-81
2022/04/17 06:18:17;;;;;;;0.10;0.10;;;;;;;;;;5133855;27;20134;-81
2022/04/17 06:20:43;;;;;;;0.10;0.10;;;;;;;;;;5133370;27;20521;-79
2022/04/17 06:23:09;;;;;;;0.10;0.10;;;;;;;;;;5134448;27;20038;-83
2022/04/17 06:25:35;;;;;;;0.10;0.10;;;;;;;;;;5115842;27;20026;-81
2022/04/17 06:28:01;;;;;;;0.20;0.20;;;;;;;;;;5134150;27;20094;-81
2022/04/17 06:30:27;;;;;;;0.10;0.10;;;;;;;;;;5133802;27;20043;-79
2022/04/17 06:32:53;;;;;;;0.10;0.10;;;;;;;;;;5134028;27;20502;-79
2022/04/17 06:35:19;;;;;;;0.10;0.10;;;;;;;;;;5133943;27;20495;-79
2022/04/17 06:37:46;;;;;;;0.10;0.10;;;;;;;;;;5131849;27;20023;-78
2022/04/17 06:40:15;;;;;;;0.10;0.10;;;;;;;;;;5132658;27;20031;-79
2022/04/17 06:42:41;;;;;;;0.10;0.10;;;;;;;;;;5132588;27;20031;-78
2022/04/17 06:45:07;;;;;;;0.10;0.10;;;;;;;;;;5131933;27;20029;-78
2022/04/17 06:47:33;;;;;;;0.10;0.10;;;;;;;;;;5132332;27;20034;-79
2022/04/17 06:49:59;;;;;;;0.10;0.10;;;;;;;;;;5133235;27;20031;-79
2022/04/17 06:52:25;;;;;;;0.10;0.10;;;;;;;;;;5131653;27;20404;-79
2022/04/17 06:54:51;;;;;;;0.10;0.10;;;;;;;;;;5133262;27;20053;-79
2022/04/17 06:57:17;;;;;;;0.10;0.10;;;;;;;;;;5132244;27;20390;-79
2022/04/17 06:59:43;;;;;;;0.13;0.13;;;;;;;;;;5133184;27;20352;-78
2022/04/17 07:02:09;;;;;;;0.20;0.20;;;;;;;;;;5133361;27;20160;-80
2022/04/17 07:04:35;;;;;;;0.17;0.17;;;;;;;;;;5119581;27;20024;-79
2022/04/17 07:07:01;;;;;;;0.10;0.10;;;;;;;;;;5132678;27;20375;-78
2022/04/17 07:09:27;;;;;;;0.10;0.10;;;;;;;;;;5132531;27;20034;-78
2022/04/17 07:11:55;;;;;;;0.10;0.10;;;;;;;;;;5132552;27;20094;-79
2022/04/17 07:14:21;;;;;;;0.10;0.10;;;;;;;;;;5132901;27;20447;-78
2022/04/17 07:16:47;;;;;;;0.10;0.10;;;;;;;;;;5113939;27;20115;-78
2022/04/17 07:19:15;;;;;;;0.10;0.10;;;;;;;;;;5113964;27;20034;-77
2022/04/17 07:21:41;;;;;;;0.00;0.00;;;;;;;;;;5132470;27;20485;-79
2022/04/17 07:24:07;;;;;;;0.10;0.10;;;;;;;;;;5132596;27;20024;-77
2022/04/17 07:26:33;;;;;;;0.20;0.20;;;;;;;;;;5132242;27;20027;-83
2022/04/17 07:28:59;;;;;;;0.10;0.10;;;;;;;;;;5133004;27;20026;-80
2022/04/17 07:31:25;;;;;;;0.17;0.17;;;;;;;;;;5096724;27;20102;-79
2022/04/17 07:33:51;;;;;;;0.10;0.10;;;;;;;;;;5133030;27;20111;-87
2022/04/17 07:36:18;;;;;;;0.10;0.10;;;;;;;;;;5132352;27;20454;-82
2022/04/17 07:38:44;;;;;;;0.10;0.10;;;;;;;;;;5095325;27;20028;-83
2022/04/17 07:41:10;;;;;;;0.10;0.10;;;;;;;;;;5132120;27;20038;-81
2022/04/17 07:43:36;;;;;;;0.10;0.10;;;;;;;;;;5132282;27;20470;-83
2022/04/17 07:46:02;;;;;;;0.20;0.20;;;;;;;;;;5132735;27;20023;-80
2022/04/17 07:48:28;;;;;;;0.15;0.15;;;;;;;;;;5098454;27;20036;-79
2022/04/17 07:50:54;;;;;;;0.10;0.10;;;;;;;;;;5113637;27;20027;-79
2022/04/17 07:53:20;;;;;;;0.10;0.10;;;;;;;;;;5132582;27;20215;-80
2022/04/17 07:55:47;;;;;;;0.10;0.10;;;;;;;;;;5131658;27;20020;-80
2022/04/17 07:58:22;;;;;;;0.20;0.20;;;;;;;;;;5132216;27;20052;-83
2022/04/17 08:00:57;;;;;;;0.10;0.10;;;;;;;;;;5132363;27;20015;-83
2022/04/17 08:03:46;;;;;;;0.20;0.20;;;;;;;;;;5132173;27;20023;-81
2022/04/17 08:06:15;;;;;;;0.63;0.43;;;;;;;;;;5131536;27;20037;-80
2022/04/17 08:08:41;;;;;;;0.20;0.20;;;;;;;;;;5113408;27;20541;-80
2022/04/17 08:11:08;;;;;;;0.10;0.10;;;;;;;;;;5131589;27;20090;-81
2022/04/17 08:13:34;;;;;;;0.10;0.10;;;;;;;;;;5115861;28;20038;-87
2022/04/17 08:16:00;;;;;;;0.10;0.10;;;;;;;;;;5132044;27;20027;-85
2022/04/17 08:18:26;;;;;;;0.10;0.10;;;;;;;;;;5130330;27;20035;-80
2022/04/17 08:20:53;;;;;;;0.10;0.10;;;;;;;;;;5132159;28;20035;-80
2022/04/17 08:23:19;;;;;;;0.10;0.10;;;;;;;;;;5132086;27;20540;-79
2022/04/17 08:25:46;;;;;;;0.10;0.10;;;;;;;;;;5131661;27;20435;-87
2022/04/17 08:28:12;;;;;;;0.10;0.10;;;;;;;;;;5132819;27;20065;-85
2022/04/17 08:30:38;;;;;;;0.10;0.10;;;;;;;;;;5130555;28;20493;-81
2022/04/17 08:33:05;;;;;;;0.10;0.10;;;;;;;;;;5132621;27;20026;-83
2022/04/17 08:35:31;;;;;;;0.10;0.10;;;;;;;;;;5132385;28;20493;-83
2022/04/17 08:38:00;;;;;;;0.20;0.20;;;;;;;;;;5131888;28;20026;-85
2022/04/17 08:40:29;;;;;;;0.15;0.15;;;;;;;;;;5108709;28;20379;-82
2022/04/17 08:42:56;;;;;;;0.15;0.15;;;;;;;;;;5129817;27;20035;-84
2022/04/17 08:45:23;;;;;;;0.10;0.10;;;;;;;;;;5130997;28;20023;-80
2022/04/17 08:47:49;;;;;;;0.20;0.20;;;;;;;;;;5111751;28;20508;-80
2022/04/17 08:50:17;;;;;;;0.45;0.45;;;;;;;;;;5131690;28;20031;-81
2022/04/17 08:52:45;;;;;;;0.10;0.10;;;;;;;;;;5113212;28;20490;-81
2022/04/17 08:55:11;;;;;;;0.10;0.10;;;;;;;;;;5131646;28;20031;-82
2022/04/17 08:57:37;;;;;;;0.20;0.20;;;;;;;;;;5128223;28;20023;-79
2022/04/17 09:00:05;;;;;;;0.10;0.10;;;;;;;;;;5125585;27;20015;-81
2022/04/17 09:02:31;;;;;;;0.10;0.10;;;;;;;;;;5130099;28;20099;-80
2022/04/17 09:04:57;;;;;;;0.10;0.10;;;;;;;;;;5131682;28;20412;-82
2022/04/17 09:07:23;;;;;;;0.20;0.20;;;;;;;;;;5128795;27;20031;-81
2022/04/17 09:09:53;;;;;;;0.10;0.10;;;;;;;;;;5119383;28;20072;-81
2022/04/17 09:12:19;;;;;;;0.10;0.10;;;;;;;;;;5118888;27;20028;-80
2022/04/17 09:14:45;;;;;;;0.10;0.10;;;;;;;;;;5118538;28;20160;-80
2022/04/17 09:17:11;;;;;;;0.10;0.10;;;;;;;;;;5123007;27;20043;-80
2022/04/17 09:19:38;;;;;;;0.10;0.10;;;;;;;;;;5106748;28;20019;-79
2022/04/17 09:22:05;;;;;;;0.10;0.10;;;;;;;;;;5131656;28;20110;-82
2022/04/17 09:24:35;;;;;;;0.10;0.10;;;;;;;;;;5111468;28;20023;-80
2022/04/17 09:27:01;;;;;;;0.10;0.10;;;;;;;;;;5130841;28;20031;-80
2022/04/17 09:29:28;;;;;;;0.10;0.10;;;;;;;;;;5131997;27;20027;-81
2022/04/17 09:32:01;;;;;;;0.10;0.10;;;;;;;;;;5133284;27;20023;-83
2022/04/17 09:34:28;;;;;;;0.10;0.10;;;;;;;;;;5116084;27;20027;-82
2022/04/17 09:36:58;;;;;;;0.10;0.10;;;;;;;;;;5134498;27;20030;-82
2022/04/17 09:39:31;;;;;;;0.10;0.10;;;;;;;;;;5135107;27;20030;-82
2022/04/17 09:41:58;;;;;;;0.10;0.10;;;;;;;;;;5135399;27;20409;-85
2022/04/17 09:44:47;;;;;;;0.10;0.10;;;;;;;;;;5135338;27;20034;-82
2022/04/17 09:47:21;;;;;;;0.10;0.10;;;;;;;;;;5111533;27;20093;-85
2022/04/17 09:49:55;;;;;;;0.10;0.10;;;;;;;;;;5130540;27;20034;-83
2022/04/17 09:52:22;;;;;;;0.10;0.10;;;;;;;;;;5125500;27;20019;-82
2022/04/17 09:54:49;;;;;;;0.13;0.13;;;;;;;;;;5128636;27;20106;-84
2022/04/17 09:57:34;;;;;;;0.10;0.10;;;;;;;;;;5134237;27;20394;-80
2022/04/17 10:00:08;;;;;;;0.10;0.10;;;;;;;;;;5115773;27;20494;-79
2022/04/17 10:02:35;;;;;;;0.13;0.13;;;;;;;;;;5134432;27;20027;-78
2022/04/17 10:05:01;;;;;;;0.17;0.17;;;;;;;;;;5134491;27;20028;-81
2022/04/17 10:07:28;;;;;;;0.10;0.10;;;;;;;;;;5134357;27;20102;-80
2022/04/17 10:09:54;;;;;;;0.10;0.10;;;;;;;;;;5129347;27;20030;-80
2022/04/17 10:12:21;;;;;;;0.10;0.10;;;;;;;;;;5151257;27;20027;-81
2022/04/17 10:14:51;;;;;;;0.10;0.10;;;;;;;;;;5152687;27;20362;-81
2022/04/17 10:17:21;;;;;;;0.10;0.10;;;;;;;;;;5153417;27;20079;-81
2022/04/17 10:19:50;;;;;;;0.10;0.10;;;;;;;;;;5154590;27;20023;-81
2022/04/17 10:22:21;;;;;;;0.10;0.10;;;;;;;;;;5154848;27;20083;-81
2022/04/17 10:24:54;;;;;;;0.10;0.10;;;;;;;;;;5154748;27;20018;-81
2022/04/17 10:27:40;;;;;;;0.10;0.10;;;;;;;;;;5155128;27;20045;-81
2022/04/17 10:30:18;;;;;;;0.10;0.10;;;;;;;;;;5154661;27;20529;-81
2022/04/17 10:32:59;;;;;;;0.10;0.10;;;;;;;;;;5154463;27;20023;-81
2022/04/17 10:35:40;;;;;;;0.10;0.10;;;;;;;;;;5154396;27;20106;-81
2022/04/17 10:38:25;;;;;;;0.10;0.10;;;;;;;;;;5154609;27;20068;-81
2022/04/17 10:40:59;;;;;;;0.10;0.10;;;;;;;;;;5154243;27;20030;-81
2022/04/17 10:43:32;;;;;;;0.10;0.10;;;;;;;;;;5154316;27;20031;-81
2022/04/17 10:46:15;;;;;;;0.10;0.10;;;;;;;;;;5135942;27;20026;-80
2022/04/17 10:48:43;;;;;;;0.20;0.20;;;;;;;;;;5154271;27;20038;-81
2022/04/17 10:51:27;;;;;;;0.10;0.10;;;;;;;;;;5154143;27;20034;-81
2022/04/17 10:54:03;;;;;;;0.10;0.10;;;;;;;;;;5154245;27;20144;-80
2022/04/17 10:56:32;;;;;;;0.10;0.10;;;;;;;;;;5154026;27;20101;-81
2022/04/17 10:59:00;;;;;;;0.10;0.10;;;;;;;;;;5154172;27;20026;-81
2022/04/17 11:01:42;;;;;;;0.10;0.10;;;;;;;;;;5153770;27;20046;-81
2022/04/17 11:04:34;;;;;;;0.10;0.10;;;;;;;;;;5154035;27;20038;-81
2022/04/17 11:07:06;;;;;;;0.10;0.10;;;;;;;;;;5131598;27;20038;-81
2022/04/17 11:09:38;;;;;;;0.10;0.10;;;;;;;;;;5153847;27;20023;-80
2022/04/17 11:12:11;;;;;;;0.10;0.10;;;;;;;;;;5153931;27;20373;-81
2022/04/17 11:14:40;;;;;;;0.10;0.10;;;;;;;;;;5153537;27;20061;-81
2022/04/17 11:17:11;;;;;;;0.10;0.10;;;;;;;;;;5153762;27;20052;-81
2022/04/17 11:19:38;;;;;;;0.10;0.10;;;;;;;;;;5153551;27;20063;-80
2022/04/17 11:22:05;;;;;;;0.10;0.10;;;;;;;;;;5135231;27;20127;-81
2022/04/17 11:24:58;;;;;;;0.10;0.10;;;;;;;;;;5153509;27;20030;-81
2022/04/17 11:27:42;;;;;;;0.10;0.10;;;;;;;;;;5149038;27;20074;-81
2022/04/17 11:30:29;;;;;;;0.10;0.10;;;;;;;;;;5153716;27;20026;-81
2022/04/17 11:32:56;;;;;;;0.10;0.10;;;;;;;;;;5153531;27;20407;-81
2022/04/17 11:35:22;;;;;;;0.10;0.10;;;;;;;;;;5153869;27;20038;-81
2022/04/17 11:37:52;;;;;;;0.10;0.10;;;;;;;;;;5153865;27;20018;-81
2022/04/17 11:40:19;;;;;;;0.10;0.10;;;;;;;;;;5135072;27;20066;-81
2022/04/17 11:42:46;;;;;;;0.15;0.15;;;;;;;;;;5153008;27;20034;-81
2022/04/17 11:45:13;;;;;;;0.10;0.10;;;;;;;;;;5153382;27;20026;-81
2022/04/17 11:47:44;;;;;;;0.10;0.10;;;;;;;;;;5153064;27;20023;-80
2022/04/17 11:50:11;;;;;;;0.10;0.10;;;;;;;;;;5153031;27;20033;-81
2022/04/17 11:52:37;;;;;;;0.10;0.10;;;;;;;;;;5152146;27;20038;-81
2022/04/17 11:55:04;;;;;;;0.10;0.10;;;;;;;;;;5153130;27;20026;-81
2022/04/17 11:57:32;;;;;;;0.10;0.10;;;;;;;;;;5152895;27;20033;-81
2022/04/17 11:59:58;;;;;;;0.10;0.10;;;;;;;;;;5153177;27;20018;-81
2022/04/17 12:02:24;;;;;;;0.10;0.10;;;;;;;;;;5152655;27;20478;-81
2022/04/17 12:04:52;;;;;;;0.10;0.10;;;;;;;;;;5134677;27;20029;-81
2022/04/17 12:07:19;;;;;;;0.10;0.10;;;;;;;;;;5153256;27;20022;-81
2022/04/17 12:09:48;;;;;;;0.10;0.10;;;;;;;;;;5134205;27;20031;-81
2022/04/17 12:12:15;;;;;;;0.10;0.10;;;;;;;;;;5152955;27;20050;-81
2022/04/17 12:14:45;;;;;;;0.10;0.10;;;;;;;;;;5152546;27;20026;-81
2022/04/17 12:17:11;;;;;;;0.10;0.10;;;;;;;;;;5152959;27;20023;-81
2022/04/17 12:19:37;;;;;;;0.10;0.10;;;;;;;;;;5152740;27;20030;-81
2022/04/17 12:22:13;;;;;;;0.10;0.10;;;;;;;;;;5152721;27;20470;-82
2022/04/17 12:24:44;;;;;;;0.10;0.10;;;;;;;;;;5152605;27;20031;-81
2022/04/17 12:27:10;;;;;;;0.10;0.10;;;;;;;;;;5152857;27;20022;-81
2022/04/17 12:29:40;;;;;;;0.10;0.10;;;;;;;;;;5152584;27;20046;-81
2022/04/17 12:32:17;;;;;;;0.10;0.10;;;;;;;;;;5152722;27;20386;-82
2022/04/17 12:34:46;;;;;;;0.00;0.00;;;;;;;;;;5152629;27;20350;-82
2022/04/17 12:37:21;;;;;;;0.10;0.10;;;;;;;;;;5152735;27;20480;-81
2022/04/17 12:39:48;;;;;;;0.10;0.10;;;;;;;;;;5152604;27;20045;-81
2022/04/17 12:42:18;;;;;;;0.10;0.10;;;;;;;;;;5152591;27;20035;-81
2022/04/17 12:44:44;;;;;;;0.10;0.10;;;;;;;;;;5152499;27;20030;-81
2022/04/17 12:47:11;;;;;;;0.10;0.10;;;;;;;;;;5152427;27;20257;-81
2022/04/17 12:49:37;;;;;;;0.10;0.10;;;;;;;;;;5152150;27;20027;-82
2022/04/17 12:52:04;;;;;;;0.15;0.15;;;;;;;;;;5152612;27;20019;-81
2022/04/17 12:54:30;;;;;;;0.10;0.10;;;;;;;;;;5152288;27;20026;-81
2022/04/17 12:57:10;;;;;;;0.10;0.10;;;;;;;;;;5152531;27;20040;-81
2022/04/17 12:59:43;;;;;;;0.03;0.03;;;;;;;;;;5152252;27;20110;-82
2022/04/17 13:02:12;;;;;;;0.10;0.10;;;;;;;;;;5152446;27;20031;-81
2022/04/17 13:04:42;;;;;;;0.10;0.10;;;;;;;;;;5155175;27;20038;-81
2022/04/17 13:07:10;;;;;;;0.10;0.10;;;;;;;;;;5156397;27;20088;-81
2022/04/17 13:09:36;;;;;;;0.10;0.10;;;;;;;;;;5156190;27;20469;-81
2022/04/17 13:12:02;;;;;;;0.10;0.10;;;;;;;;;;5156133;27;20030;-81
2022/04/17 13:14:28;;;;;;;0.10;0.10;;;;;;;;;;5156053;27;20030;-82
2022/04/17 13:16:56;;;;;;;0.10;0.10;;;;;;;;;;5156145;27;20030;-81
2022/04/17 13:19:23;;;;;;;0.10;0.10;;;;;;;;;;5156495;27;20419;-81
2022/04/17 13:21:50;;;;;;;0.10;0.10;;;;;;;;;;5156395;27;20033;-81
2022/04/17 13:24:17;;;;;;;0.10;0.10;;;;;;;;;;5156007;27;20106;-82
2022/04/17 13:26:44;;;;;;;0.10;0.10;;;;;;;;;;5155749;27;20359;-81
2022/04/17 13:29:10;;;;;;;0.10;0.10;;;;;;;;;;5137385;27;20037;-80
2022/04/17 13:31:36;;;;;;;0.10;0.10;;;;;;;;;;5155711;27;20058;-81
2022/04/17 13:34:03;;;;;;;0.10;0.10;;;;;;;;;;5155812;27;20018;-82
2022/04/17 13:36:29;;;;;;;0.10;0.10;;;;;;;;;;5155609;27;20050;-82
2022/04/17 13:38:55;;;;;;;0.10;0.10;;;;;;;;;;5155717;27;20054;-81
2022/04/17 13:41:22;;;;;;;0.10;0.10;;;;;;;;;;5155971;27;20030;-81
2022/04/17 13:43:49;;;;;;;0.10;0.10;;;;;;;;;;5156070;27;20049;-81
2022/04/17 13:46:15;;;;;;;0.10;0.10;;;;;;;;;;5137100;27;20026;-80
2022/04/17 13:48:43;;;;;;;0.10;0.10;;;;;;;;;;5155259;27;20034;-82
2022/04/17 13:51:09;;;;;;;0.10;0.10;;;;;;;;;;5155485;27;20026;-82
2022/04/17 13:53:35;;;;;;;0.10;0.10;;;;;;;;;;5155191;27;20023;-81
2022/04/17 13:56:02;;;;;;;0.10;0.10;;;;;;;;;;5155429;27;20350;-81
2022/04/17 13:58:28;;;;;;;0.10;0.10;;;;;;;;;;5155141;27;20019;-81
2022/04/17 14:00:56;;;;;;;0.10;0.10;;;;;;;;;;5155317;27;20061;-81
2022/04/17 14:03:22;;;;;;;0.10;0.10;;;;;;;;;;5155725;27;20482;-81
2022/04/17 14:05:48;;;;;;;0.10;0.10;;;;;;;;;;5136787;27;20022;-82
2022/04/17 14:08:14;;;;;;;0.10;0.10;;;;;;;;;;5155173;27;20531;-81
2022/04/17 14:10:40;;;;;;;0.10;0.10;;;;;;;;;;5154977;27;20047;-82
2022/04/17 14:13:08;;;;;;;0.10;0.10;;;;;;;;;;5155087;27;20052;-81
2022/04/17 14:15:34;;;;;;;0.10;0.10;;;;;;;;;;5154071;27;20512;-81
2022/04/17 14:18:00;;;;;;;0.10;0.10;;;;;;;;;;5155073;27;20021;-81
2022/04/17 14:20:26;;;;;;;0.10;0.10;;;;;;;;;;5154748;27;20043;-81
2022/04/17 14:22:52;;;;;;;0.10;0.10;;;;;;;;;;5155076;27;20030;-81
2022/04/17 14:25:18;;;;;;;0.10;0.10;;;;;;;;;;5155172;27;20021;-82
2022/04/17 14:27:45;;;;;;;0.10;0.10;;;;;;;;;;5154491;27;20027;-81
2022/04/17 14:30:11;;;;;;;0.10;0.10;;;;;;;;;;5154770;27;20022;-80
2022/04/17 14:32:38;;;;;;;0.10;0.10;;;;;;;;;;5154563;27;20050;-82
2022/04/17 14:35:05;;;;;;;0.10;0.10;;;;;;;;;;5154680;27;20052;-82
2022/04/17 14:37:31;;;;;;;0.10;0.10;;;;;;;;;;5154447;27;20039;-81
2022/04/17 14:39:57;;;;;;;0.03;0.03;;;;;;;;;;5154699;27;20022;-81
2022/04/17 14:42:23;;;;;;;0.10;0.10;;;;;;;;;;5154420;27;20382;-81
2022/04/17 14:44:49;;;;;;;0.10;0.10;;;;;;;;;;5154841;27;20026;-81
2022/04/17 14:47:15;;;;;;;0.10;0.10;;;;;;;;;;5154392;27;20027;-82
2022/04/17 14:49:42;;;;;;;0.10;0.10;;;;;;;;;;5154064;27;20029;-82
2022/04/17 14:52:09;;;;;;;0.10;0.10;;;;;;;;;;5154333;27;20023;-81
2022/04/17 14:54:36;;;;;;;0.10;0.10;;;;;;;;;;5154123;27;20489;-82
2022/04/17 14:57:02;;;;;;;0.10;0.10;;;;;;;;;;5154255;27;20023;-82
2022/04/17 14:59:29;;;;;;;0.10;0.10;;;;;;;;;;5153968;27;20022;-81
2022/04/17 15:01:56;;;;;;;0.10;0.10;;;;;;;;;;5154129;27;20031;-82
2022/04/17 15:04:22;;;;;;;0.10;0.10;;;;;;;;;;5154302;27;20063;-82